KACT/ACT METAR and TAF weather

Enter ICAO airport designator
Station Type Date Time Source
KACT METAR 2018/04/20 08:51 UTC NOAA

KACT 200851Z AUTO 08004KT 10SM CLR 11/04 A3023 RMK AO2 SLP232 T01060044 55007


Station Type Date Time Source
KACT Decoded METAR 2018/04/20 08:51 UTC NOAA

WACO REGIONAL AIRPORT, TX, United States (KACT) 31-36N 97-13W 151M
Apr 20, 2018 - 04:51 AM EDT / 2018.04.20 0851 UTC
Wind: from the E (080 degrees) at 5 MPH (4 KT):0
Visibility: 10 mile(s):0
Sky conditions: clear
Temperature: 51.1 F (10.6 C)
Dew Point: 39.9 F (4.4 C)
Relative Humidity: 65%
Pressure (altimeter): 30.23 in. Hg (1023 hPa)
Pressure tendency: 0.02 inches (0.7 hPa) lower than three hours ago
ob: KACT 200851Z AUTO 08004KT 10SM CLR 11/04 A3023 RMK AO2 SLP232 T01060044 55007
cycle: 9

Station Type Date Time Source
KACT TAF 2018/04/20 06:22 UTC NOAA

TAF KACT 200520Z 2006/2106 09007KT P6SM BKN200
FM202000 13011KT P6SM BKN100


Example: see airport list